Livonia, New York
Current Conditions -  °F | °C
As of 2:54 PM on Friday 24 Oct 2014 (Local Time) from KDSV Reporting Station
Clear Clear  
Wind Chill: 60°   Ceiling: Unl
Heat Index: 60°   Visibility: 10mi
Dew Point: 31°   Wind: 14mph
Humidity: 33%   Direction: 330°NNW
Pressure: 29.93"   Gusts: NA
Location:  42.82°N, 77.67°W
Report Text: KDSV 241854Z AUTO 33012KT 10SM CLR 16/M01 A2993 RMK AO2 SLP145 T01561006
Loading
Personal Weather Stations






























Interactive Weather Map New forecast layout! Learn more

10-Day Weather Forecast

Advertisements
Track Severe Weather on mobile